createdAt,value
2023-03-17T00:00:50.102Z,13.88
2023-03-17T00:03:27.519Z,15.27
2023-03-17T00:05:58.800Z,16.33
2023-03-17T00:11:00.185Z,12.23
2023-03-17T00:13:32.459Z,12.95
2023-03-17T00:16:04.854Z,13.30
2023-03-17T00:18:35.769Z,13.88
2023-03-17T00:23:35.556Z,13.95
2023-03-17T00:26:07.545Z,14.32
2023-03-17T00:28:37.562Z,14.52
2023-03-17T00:31:14.897Z,14.13
2023-03-17T00:33:46.932Z,14.70
2023-03-17T00:36:19.951Z,13.82
2023-03-17T00:38:49.958Z,14.25
2023-03-17T00:41:21.638Z,14.32
2023-03-17T00:43:51.770Z,12.95
2023-03-17T00:46:27.057Z,15.02
2023-03-17T00:48:58.137Z,13.05
2023-03-17T00:51:28.421Z,13.25
2023-03-17T00:53:57.798Z,14.20
2023-03-17T00:56:29.002Z,13.32
2023-03-17T00:58:58.869Z,12.40
2023-03-17T01:01:28.659Z,13.63
2023-03-17T01:03:58.155Z,11.52
2023-03-17T01:06:28.114Z,11.35
2023-03-17T01:08:57.882Z,12.52
2023-03-17T01:11:30.630Z,10.57
2023-03-17T01:14:00.209Z,10.68
2023-03-17T01:16:30.024Z,11.60
2023-03-17T01:18:59.696Z,10.55
2023-03-17T01:21:29.731Z,10.90
2023-03-17T01:23:59.184Z,11.30
2023-03-17T01:26:30.433Z,11.73
2023-03-17T01:29:00.443Z,10.45
2023-03-17T01:31:30.789Z,10.73
2023-03-17T01:34:00.270Z,10.23
2023-03-17T01:36:30.227Z,10.77
2023-03-17T01:38:59.821Z,11.02
2023-03-17T01:41:34.345Z,10.05
2023-03-17T01:44:03.973Z,10.32
2023-03-17T01:46:35.172Z,10.75
2023-03-17T01:49:14.724Z,10.93
2023-03-17T01:51:52.120Z,10.38
2023-03-17T01:54:28.489Z,10.52
2023-03-17T01:57:04.110Z,10.63
2023-03-17T01:59:38.079Z,10.63
2023-03-17T02:02:12.878Z,10.80
2023-03-17T02:04:42.235Z,9.55
2023-03-17T02:07:13.327Z,10.13
2023-03-17T02:09:43.425Z,9.68
2023-03-17T02:12:15.623Z,9.50
2023-03-17T02:14:47.111Z,11.55
2023-03-17T02:17:17.417Z,10.20
2023-03-17T02:19:46.716Z,11.93
2023-03-17T02:22:19.460Z,11.10
2023-03-17T02:24:52.677Z,11.05
2023-03-17T02:27:28.053Z,11.63
2023-03-17T02:29:58.347Z,11.35
2023-03-17T02:32:28.505Z,11.50
2023-03-17T02:34:58.138Z,10.82
2023-03-17T02:37:29.541Z,11.20
2023-03-17T02:42:29.052Z,11.40
2023-03-17T02:44:58.856Z,13.20
2023-03-17T02:47:28.946Z,11.57
2023-03-17T02:49:59.234Z,13.25
2023-03-17T02:52:30.387Z,11.75
2023-03-17T02:54:59.821Z,11.57
2023-03-17T02:57:29.979Z,11.57
2023-03-17T02:59:59.937Z,12.95
2023-03-17T03:02:30.309Z,10.82
2023-03-17T03:05:00.152Z,11.45
2023-03-17T03:07:31.881Z,13.45
2023-03-17T03:12:31.133Z,9.85
2023-03-17T03:15:01.231Z,11.02
2023-03-17T03:17:31.515Z,12.10
2023-03-17T03:20:00.929Z,12.85
2023-03-17T03:22:32.706Z,12.20
2023-03-17T03:25:02.007Z,12.45
2023-03-17T03:27:32.535Z,12.15
2023-03-17T03:30:01.874Z,9.85
2023-03-17T03:32:32.140Z,9.05
2023-03-17T03:35:01.769Z,9.80
2023-03-17T03:37:32.912Z,10.32
2023-03-17T03:40:02.562Z,10.70
2023-03-17T03:42:32.561Z,10.63
2023-03-17T03:45:02.165Z,10.25
2023-03-17T03:47:32.386Z,9.90
2023-03-17T03:50:01.744Z,9.93
2023-03-17T03:52:33.070Z,11.30
2023-03-17T03:55:02.943Z,9.55
2023-03-17T03:57:32.819Z,9.05
2023-03-17T04:00:02.284Z,10.25
2023-03-17T04:02:32.348Z,10.35
2023-03-17T04:05:02.067Z,9.93
2023-03-17T04:07:33.635Z,9.73
2023-03-17T04:12:32.696Z,9.60
2023-03-17T04:15:02.621Z,10.48
2023-03-17T04:17:32.436Z,9.83
2023-03-17T04:20:01.788Z,10.07
2023-03-17T04:22:33.378Z,10.83
2023-03-17T04:25:02.798Z,10.25
2023-03-17T04:27:33.292Z,12.60
2023-03-17T04:30:02.969Z,11.80
2023-03-17T04:32:32.831Z,11.35
2023-03-17T04:35:02.321Z,12.38
2023-03-17T04:37:34.649Z,10.23
2023-03-17T04:40:04.894Z,11.70
2023-03-17T04:42:34.680Z,12.30
2023-03-17T04:45:04.277Z,12.00
2023-03-17T04:47:34.132Z,10.75
2023-03-17T04:50:04.133Z,11.30
2023-03-17T04:52:35.436Z,14.00
2023-03-17T04:57:34.555Z,12.10
2023-03-17T05:00:04.077Z,12.20
2023-03-17T05:02:34.551Z,12.93
2023-03-17T05:05:03.983Z,13.03
2023-03-17T05:07:35.713Z,13.05
2023-03-17T05:10:07.087Z,14.27
2023-03-17T05:12:37.143Z,14.13
2023-03-17T05:15:07.437Z,13.25
2023-03-17T05:17:37.259Z,15.27
2023-03-17T05:20:08.653Z,14.23
2023-03-17T05:22:39.818Z,14.88
2023-03-17T05:25:09.786Z,14.30
2023-03-17T05:27:39.987Z,15.88
2023-03-17T05:30:10.803Z,17.17
2023-03-17T05:32:40.672Z,17.02
2023-03-17T05:35:10.630Z,15.82
2023-03-17T05:37:42.040Z,16.92
2023-03-17T05:42:41.769Z,16.87
2023-03-17T05:45:12.698Z,16.50
2023-03-17T05:47:42.407Z,15.80
2023-03-17T05:50:13.128Z,16.08
2023-03-17T05:52:44.721Z,14.85
2023-03-17T05:55:14.171Z,15.63
2023-03-17T05:57:44.019Z,16.98
2023-03-17T06:00:16.468Z,17.63
2023-03-17T06:02:46.580Z,17.25
2023-03-17T06:05:16.002Z,17.85
2023-03-17T06:07:53.991Z,18.42
2023-03-17T06:10:26.058Z,17.02
2023-03-17T06:12:56.175Z,17.60
2023-03-17T06:15:25.690Z,19.67
2023-03-17T06:17:55.823Z,20.55
2023-03-17T06:20:26.110Z,18.98
2023-03-17T06:23:04.281Z,20.00
2023-03-17T06:25:35.733Z,18.30
2023-03-17T06:30:38.784Z,18.10
2023-03-17T06:33:10.824Z,19.23
2023-03-17T06:35:40.797Z,22.20
2023-03-17T06:38:12.176Z,20.17
2023-03-17T06:40:42.591Z,21.58
2023-03-17T06:43:12.044Z,21.98
2023-03-17T06:45:42.453Z,20.50
2023-03-17T06:48:11.715Z,23.23
2023-03-17T06:50:41.507Z,22.70
2023-03-17T06:53:13.008Z,21.67
2023-03-17T06:55:43.517Z,19.48
2023-03-17T06:58:13.626Z,20.02
2023-03-17T07:00:43.486Z,19.60
2023-03-17T07:03:13.149Z,20.40
2023-03-17T07:05:43.433Z,18.45
2023-03-17T07:08:14.210Z,19.13
2023-03-17T07:10:46.124Z,23.77
2023-03-17T07:13:15.468Z,19.15
2023-03-17T07:15:47.331Z,18.60
2023-03-17T07:18:17.361Z,18.90
2023-03-17T07:20:47.229Z,19.17
2023-03-17T07:23:21.911Z,20.17
2023-03-17T07:25:52.047Z,20.17
2023-03-17T07:28:22.342Z,19.50
2023-03-17T07:30:52.454Z,19.98
2023-03-17T07:33:22.819Z,20.88
2023-03-17T07:35:52.681Z,19.77
2023-03-17T07:38:23.842Z,20.50
2023-03-17T07:40:54.039Z,19.20
2023-03-17T07:43:24.193Z,19.63
2023-03-17T07:45:54.033Z,19.08
2023-03-17T07:48:23.610Z,18.00
2023-03-17T07:50:53.436Z,18.67
2023-03-17T07:53:24.905Z,18.40
2023-03-17T07:55:54.736Z,17.38
2023-03-17T07:58:24.457Z,18.75
2023-03-17T08:00:54.310Z,17.77
2023-03-17T08:03:23.856Z,16.30
2023-03-17T08:05:55.624Z,16.90
2023-03-17T08:08:27.555Z,17.77
2023-03-17T08:11:04.165Z,16.88
2023-03-17T08:13:33.725Z,17.10
2023-03-17T08:16:03.991Z,19.23
2023-03-17T08:18:33.492Z,17.52
2023-03-17T08:21:03.772Z,17.38
2023-03-17T08:23:34.820Z,15.65
2023-03-17T08:26:06.180Z,17.23
2023-03-17T08:31:13.234Z,15.45
2023-03-17T08:33:42.985Z,16.80
2023-03-17T08:36:13.720Z,15.63
2023-03-17T08:38:45.338Z,16.35
2023-03-17T08:41:17.278Z,12.73
2023-03-17T08:43:47.443Z,12.85
2023-03-17T08:46:22.018Z,13.60
2023-03-17T08:48:52.970Z,13.57
2023-03-17T08:51:24.592Z,13.93
2023-03-17T08:53:56.572Z,15.40
2023-03-17T08:56:27.369Z,15.20
2023-03-17T08:58:56.771Z,15.73
2023-03-17T09:01:27.720Z,14.77
2023-03-17T09:03:57.288Z,14.35
2023-03-17T09:06:27.914Z,15.48
2023-03-17T09:08:58.722Z,15.23
2023-03-17T09:11:30.013Z,15.80
2023-03-17T09:13:59.486Z,14.38
2023-03-17T09:16:34.221Z,15.20
2023-03-17T09:19:04.063Z,13.75
2023-03-17T09:21:33.898Z,14.07
2023-03-17T09:24:04.904Z,13.63
2023-03-17T09:26:34.711Z,14.13
2023-03-17T09:29:05.172Z,13.10
2023-03-17T09:34:06.927Z,13.48
2023-03-17T09:36:36.625Z,14.32
2023-03-17T09:39:07.669Z,12.43
2023-03-17T09:42:00.224Z,13.27
2023-03-17T09:44:46.238Z,15.75
2023-03-17T09:47:36.858Z,12.55
2023-03-17T09:50:14.502Z,12.60
2023-03-17T09:52:45.123Z,13.60
2023-03-17T09:55:27.324Z,13.07
2023-03-17T09:57:59.104Z,12.93
2023-03-17T10:00:31.482Z,11.77
2023-03-17T10:03:01.852Z,11.15
2023-03-17T10:05:35.464Z,11.45
2023-03-17T10:08:28.938Z,11.57
2023-03-17T10:11:04.782Z,10.77
2023-03-17T10:13:47.270Z,9.95
2023-03-17T10:16:19.965Z,10.20
2023-03-17T10:19:10.678Z,10.60
2023-03-17T10:21:50.073Z,11.43
2023-03-17T10:24:21.059Z,9.57
2023-03-17T10:26:54.473Z,9.48
2023-03-17T10:29:25.671Z,9.50
2023-03-17T10:31:58.283Z,9.55
2023-03-17T10:34:31.068Z,9.38
2023-03-17T10:37:05.768Z,9.00
2023-03-17T10:39:47.133Z,8.25
2023-03-17T10:42:24.110Z,8.80
2023-03-17T10:44:57.219Z,8.23
2023-03-17T10:47:31.999Z,6.80
2023-03-17T10:50:06.042Z,7.78
2023-03-17T10:52:41.068Z,7.63
2023-03-17T10:55:14.569Z,9.02
2023-03-17T10:57:54.201Z,7.35
2023-03-17T11:00:25.211Z,8.40
2023-03-17T11:02:58.661Z,7.40
2023-03-17T11:05:30.550Z,6.75
2023-03-17T11:08:07.602Z,7.60
2023-03-17T11:10:41.897Z,7.80
2023-03-17T11:13:18.258Z,7.18
2023-03-17T11:15:54.657Z,9.43
2023-03-17T11:18:30.092Z,7.20
2023-03-17T11:21:05.329Z,7.43
2023-03-17T11:23:53.801Z,7.65
2023-03-17T11:26:44.694Z,7.68
2023-03-17T11:29:34.191Z,7.85
2023-03-17T11:32:16.820Z,6.68
2023-03-17T11:35:03.017Z,6.22
2023-03-17T11:37:52.767Z,5.97
2023-03-17T11:40:29.555Z,6.43
2023-03-17T11:43:21.064Z,7.00
2023-03-17T11:45:55.857Z,6.57
2023-03-17T11:48:39.726Z,7.00
2023-03-17T11:51:17.700Z,7.25
2023-03-17T11:54:11.135Z,7.20
2023-03-17T11:56:45.758Z,6.75
2023-03-17T11:59:26.086Z,7.43
2023-03-17T12:02:08.172Z,6.53
2023-03-17T12:04:40.136Z,7.93
2023-03-17T12:07:18.515Z,6.88
2023-03-17T12:09:52.385Z,8.18
2023-03-17T12:12:29.128Z,6.68
2023-03-17T12:15:01.239Z,7.57
2023-03-17T12:17:36.330Z,7.47
2023-03-17T12:20:16.664Z,7.45
2023-03-17T12:22:50.219Z,9.32
2023-03-17T12:25:27.321Z,6.68
2023-03-17T12:28:02.427Z,8.80
2023-03-17T12:30:37.497Z,8.05
2023-03-17T12:33:22.353Z,8.60
2023-03-17T12:35:52.356Z,10.00
2023-03-17T12:38:27.172Z,8.43
2023-03-17T12:41:19.343Z,8.65
2023-03-17T12:44:02.802Z,8.55
2023-03-17T12:47:08.025Z,8.90
2023-03-17T12:50:14.659Z,9.43
2023-03-17T12:52:54.337Z,9.13
2023-03-17T12:55:28.245Z,8.93
2023-03-17T12:58:04.041Z,7.38
2023-03-17T13:00:37.040Z,8.00
2023-03-17T13:03:18.528Z,7.55
2023-03-17T13:08:26.271Z,7.20
2023-03-17T13:11:18.151Z,7.72
2023-03-17T13:13:59.610Z,7.63
2023-03-17T13:16:32.815Z,7.97
2023-03-17T13:19:24.698Z,8.48
2023-03-17T13:22:26.507Z,7.82
2023-03-17T13:24:56.147Z,8.85
2023-03-17T13:27:50.404Z,8.57
2023-03-17T13:30:53.817Z,8.05
2023-03-17T13:33:27.510Z,7.70
2023-03-17T13:36:17.924Z,7.65
2023-03-17T13:39:19.236Z,9.37
2023-03-17T13:42:19.140Z,8.65
2023-03-17T13:45:12.215Z,7.85
2023-03-17T13:47:43.381Z,8.07
2023-03-17T13:50:17.562Z,7.88
2023-03-17T13:52:50.985Z,8.63
2023-03-17T13:55:42.349Z,7.93
2023-03-17T13:58:34.868Z,9.02
2023-03-17T14:01:11.405Z,8.93
2023-03-17T14:03:45.538Z,8.43
2023-03-17T14:06:16.634Z,9.88
2023-03-17T14:08:54.123Z,9.68
2023-03-17T14:11:30.186Z,9.23
2023-03-17T14:14:31.153Z,9.25
2023-03-17T14:17:06.716Z,9.65
2023-03-17T14:19:39.338Z,8.85
2023-03-17T14:22:22.177Z,7.78
2023-03-17T14:24:56.356Z,8.50
2023-03-17T14:27:28.526Z,8.57
2023-03-17T14:29:58.337Z,8.43
2023-03-17T14:32:27.975Z,9.35
2023-03-17T14:35:00.168Z,8.57
2023-03-17T14:37:29.907Z,8.50
2023-03-17T14:40:00.685Z,7.60
2023-03-17T14:42:33.320Z,8.32
2023-03-17T14:45:05.418Z,7.80
2023-03-17T14:47:41.293Z,7.68
2023-03-17T14:50:18.831Z,7.82
2023-03-17T14:52:48.220Z,8.23
2023-03-17T14:55:20.074Z,8.57
2023-03-17T14:57:55.113Z,7.53
2023-03-17T15:00:34.616Z,8.05
2023-03-17T15:03:16.201Z,8.02
2023-03-17T15:05:47.874Z,8.45
2023-03-17T15:08:46.419Z,8.00
2023-03-17T15:11:22.226Z,7.63
2023-03-17T15:13:57.310Z,8.65
2023-03-17T15:16:32.040Z,7.90
2023-03-17T15:19:10.230Z,7.97
2023-03-17T15:21:42.627Z,7.95
2023-03-17T15:24:26.516Z,8.38
2023-03-17T15:27:06.671Z,7.97
2023-03-17T15:29:37.847Z,9.25
2023-03-17T15:32:16.946Z,7.80
2023-03-17T15:34:46.494Z,8.00
2023-03-17T15:37:21.412Z,7.97
2023-03-17T15:39:53.116Z,8.35
2023-03-17T15:42:25.317Z,8.95
2023-03-17T15:44:56.567Z,7.65
2023-03-17T15:47:29.067Z,7.68
2023-03-17T15:50:00.350Z,7.50
2023-03-17T15:52:30.653Z,7.95
2023-03-17T15:55:00.956Z,7.60
2023-03-17T15:57:31.555Z,8.85
2023-03-17T16:00:02.813Z,8.27
2023-03-17T16:02:34.988Z,8.45
2023-03-17T16:05:14.668Z,7.55
2023-03-17T16:07:44.479Z,8.00
2023-03-17T16:10:23.312Z,8.27
2023-03-17T16:12:53.128Z,7.85
2023-03-17T16:15:26.328Z,8.30
2023-03-17T16:17:59.721Z,6.93
2023-03-17T16:20:31.652Z,8.18
2023-03-17T16:23:07.639Z,7.00
2023-03-17T16:25:38.796Z,7.63
2023-03-17T16:28:16.855Z,8.02
2023-03-17T16:30:48.937Z,7.72
2023-03-17T16:33:21.207Z,8.43
2023-03-17T16:35:52.625Z,7.97
2023-03-17T16:38:24.740Z,8.88
2023-03-17T16:40:55.892Z,7.88
2023-03-17T16:43:27.743Z,9.20
2023-03-17T16:46:00.925Z,9.15
2023-03-17T16:48:31.416Z,8.68
2023-03-17T16:51:00.997Z,9.60
2023-03-17T16:56:01.526Z,8.25
2023-03-17T16:58:34.790Z,9.27
2023-03-17T17:01:11.549Z,8.43
2023-03-17T17:03:41.274Z,7.82
2023-03-17T17:06:13.574Z,8.77
2023-03-17T17:08:44.909Z,8.55
2023-03-17T17:11:14.953Z,8.13
2023-03-17T17:13:46.173Z,8.43
2023-03-17T17:16:24.771Z,8.65
2023-03-17T17:18:55.183Z,9.18
2023-03-17T17:21:24.847Z,8.35
2023-03-17T17:23:54.620Z,8.33
2023-03-17T17:26:24.727Z,9.02
2023-03-17T17:28:55.001Z,7.25
2023-03-17T17:31:26.717Z,8.95
2023-03-17T17:33:57.214Z,7.72
2023-03-17T17:36:27.794Z,7.35
2023-03-17T17:38:58.157Z,8.25
2023-03-17T17:41:27.498Z,8.13
2023-03-17T17:43:57.703Z,7.53
2023-03-17T17:46:28.541Z,9.02
2023-03-17T17:48:58.307Z,7.60
2023-03-17T17:51:29.054Z,8.80
2023-03-17T17:53:58.881Z,8.55
2023-03-17T17:56:28.345Z,8.70
2023-03-17T17:58:59.634Z,8.52
2023-03-17T18:01:30.421Z,8.55
2023-03-17T18:04:00.509Z,8.63
2023-03-17T18:06:30.155Z,8.65
2023-03-17T18:09:00.169Z,8.13
2023-03-17T18:11:29.716Z,11.23
2023-03-17T18:13:59.807Z,8.50
2023-03-17T18:16:30.662Z,10.25
2023-03-17T18:19:02.595Z,8.77
2023-03-17T18:21:32.442Z,9.27
2023-03-17T18:24:02.291Z,9.57
2023-03-17T18:26:32.301Z,9.48
2023-03-17T18:29:02.266Z,9.48
2023-03-17T18:31:35.990Z,9.20
2023-03-17T18:34:08.356Z,9.23
2023-03-17T18:36:37.853Z,10.05
2023-03-17T18:39:08.468Z,10.80
2023-03-17T18:41:38.218Z,9.50
2023-03-17T18:44:10.399Z,10.73
2023-03-17T18:46:41.296Z,9.60
2023-03-17T18:49:11.169Z,9.57
2023-03-17T18:51:41.031Z,10.57
2023-03-17T18:54:12.320Z,9.88
2023-03-17T18:56:41.726Z,10.00
2023-03-17T18:59:11.974Z,10.43
2023-03-17T19:01:42.963Z,10.73
2023-03-17T19:04:12.942Z,9.20
2023-03-17T19:06:43.159Z,9.50
2023-03-17T19:09:14.924Z,10.25
2023-03-17T19:11:44.714Z,10.80
2023-03-17T19:14:14.785Z,10.05
2023-03-17T19:16:47.203Z,10.20
2023-03-17T19:19:18.088Z,11.38
2023-03-17T19:21:48.341Z,10.40
2023-03-17T19:24:22.783Z,10.00
2023-03-17T19:26:52.529Z,10.35
2023-03-17T19:29:23.862Z,10.17
2023-03-17T19:34:27.791Z,10.80
2023-03-17T19:36:57.315Z,9.93
2023-03-17T19:39:27.646Z,10.60
2023-03-17T19:41:59.451Z,10.65
2023-03-17T19:44:30.041Z,11.05
2023-03-17T19:47:05.368Z,9.77
2023-03-17T19:49:35.577Z,12.38
2023-03-17T19:52:06.833Z,11.27
2023-03-17T19:54:43.958Z,11.80
2023-03-17T19:57:14.101Z,11.05
2023-03-17T19:59:44.788Z,10.60
2023-03-17T20:02:22.531Z,9.87
2023-03-17T20:04:57.265Z,10.70
2023-03-17T20:07:28.728Z,11.32
2023-03-17T20:10:03.052Z,10.35
2023-03-17T20:12:34.219Z,10.48
2023-03-17T20:15:07.383Z,11.48
2023-03-17T20:17:40.877Z,11.55
2023-03-17T20:20:19.774Z,10.38
2023-03-17T20:22:53.201Z,10.32
2023-03-17T20:25:34.728Z,9.88
2023-03-17T20:28:06.413Z,11.05
2023-03-17T20:30:41.001Z,10.15
2023-03-17T20:33:21.683Z,10.30
2023-03-17T20:35:55.445Z,10.43
2023-03-17T20:38:33.200Z,11.23
2023-03-17T20:41:09.569Z,9.25
2023-03-17T20:43:43.985Z,10.05
2023-03-17T20:46:20.930Z,10.75
2023-03-17T20:48:59.786Z,10.30
2023-03-17T20:51:32.718Z,10.05
2023-03-17T20:54:09.065Z,10.38
2023-03-17T20:56:42.230Z,9.63
2023-03-17T20:59:15.722Z,10.80
2023-03-17T21:01:52.996Z,10.98
2023-03-17T21:04:25.447Z,9.80
2023-03-17T21:07:01.001Z,11.07
2023-03-17T21:09:32.614Z,10.48
2023-03-17T21:12:06.557Z,10.40
2023-03-17T21:14:37.396Z,11.05
2023-03-17T21:17:10.332Z,11.50
2023-03-17T21:22:21.581Z,10.77
2023-03-17T21:25:00.039Z,12.18
2023-03-17T21:27:34.486Z,11.73
2023-03-17T21:30:09.187Z,11.27
2023-03-17T21:32:40.499Z,10.23
2023-03-17T21:35:20.814Z,10.30
2023-03-17T21:37:53.600Z,10.40
2023-03-17T21:42:57.288Z,11.05
2023-03-17T21:45:27.430Z,11.00
2023-03-17T21:47:58.063Z,11.95
2023-03-17T21:50:30.155Z,11.90
2023-03-17T21:53:03.324Z,11.38
2023-03-17T21:55:33.555Z,12.02
2023-03-17T21:58:04.136Z,11.23
2023-03-17T22:00:44.748Z,10.50
2023-03-17T22:03:17.820Z,10.63
2023-03-17T22:05:52.147Z,11.13
2023-03-17T22:08:23.948Z,9.70
2023-03-17T22:10:53.810Z,11.98
2023-03-17T22:13:23.717Z,10.75
2023-03-17T22:15:53.914Z,10.65
2023-03-17T22:20:57.944Z,11.18
2023-03-17T22:23:28.034Z,11.50
2023-03-17T22:25:57.791Z,11.63
2023-03-17T22:28:28.245Z,11.85
2023-03-17T22:30:58.197Z,11.85
2023-03-17T22:33:28.734Z,12.23
2023-03-17T22:35:59.479Z,12.53
2023-03-17T22:38:29.651Z,12.32
2023-03-17T22:41:05.029Z,10.57
2023-03-17T22:43:36.908Z,11.27
2023-03-17T22:46:07.539Z,13.10
2023-03-17T22:48:38.398Z,12.10
2023-03-17T22:51:11.781Z,12.38
2023-03-17T22:53:42.180Z,12.35
2023-03-17T22:56:13.045Z,11.90
2023-03-17T22:58:43.305Z,12.10
2023-03-17T23:01:13.785Z,12.35
2023-03-17T23:03:43.867Z,11.10
2023-03-17T23:06:15.337Z,9.90
2023-03-17T23:08:46.174Z,11.00
2023-03-17T23:11:19.556Z,11.60
2023-03-17T23:13:50.968Z,11.00
2023-03-17T23:18:51.048Z,12.88
2023-03-17T23:21:37.998Z,12.48
2023-03-17T23:24:09.165Z,11.10
2023-03-17T23:26:39.033Z,10.07
2023-03-17T23:29:10.606Z,10.98
2023-03-17T23:31:41.229Z,11.25
2023-03-17T23:36:47.107Z,9.82
2023-03-17T23:39:17.353Z,11.70
2023-03-17T23:41:46.706Z,10.23
2023-03-17T23:44:16.894Z,11.07
2023-03-17T23:46:46.671Z,10.23
2023-03-17T23:49:16.870Z,12.18
2023-03-17T23:51:48.478Z,10.93
2023-03-17T23:54:19.150Z,10.90
2023-03-17T23:56:48.449Z,10.35
2023-03-17T23:59:18.834Z,10.90
